Rockwall's Hourly Summary for Friday, May 11, 2018
Hour Temp
(f)
RH
(%)
Solar Rad.
(MJ/m2)
Rainfall
(in)
Wind
(mph)
5/11/2018 12:00 AM 73 63 0 0 6.2
5/11/2018 1:00 AM 72 65 0 0 7.01
5/11/2018 2:00 AM 72 66 0 0 7.74
5/11/2018 3:00 AM 72 68 0 0 8.54
5/11/2018 4:00 AM 71 70 0 0 7.75
5/11/2018 5:00 AM 69 75 0 0 7.76
5/11/2018 6:00 AM 69 81 0 0 7.3
5/11/2018 7:00 AM 69 82 0.02 0 6.34
5/11/2018 8:00 AM 70 80 0.23 0 8.11
5/11/2018 9:00 AM 71 75 0.92 0 9.63
5/11/2018 10:00 AM 74 66 1.7 0 8.23
5/11/2018 11:00 AM 76 64 1.72 0 8.53
5/11/2018 12:00 PM 79 56 2.85 0 10.04
5/11/2018 1:00 PM 81 53 2.43 0 8.99
5/11/2018 2:00 PM 83 51 2.32 0 7.67
5/11/2018 3:00 PM 84 47 2.62 0 8.52
5/11/2018 4:00 PM 85 45 2.48 0 9.4
5/11/2018 5:00 PM 85 44 1.75 0 8.89
5/11/2018 6:00 PM 85 45 1.5 0 8.93
5/11/2018 7:00 PM 85 46 0.61 0 8.51
5/11/2018 8:00 PM 83 47 0.08 0 8.02
5/11/2018 9:00 PM 80 49 0.01 0 5.04
5/11/2018 10:00 PM 78 55 0 0 4.23
5/11/2018 11:00 PM 76 60 0 0 5.55
Data Summary 76 60 21.24 0.00 7.79